Time;durP1;ratioP1;P1;durP2;ratioP2;P2;SDS_P1;SDS_P2;PMS_P1;PMS_P2;Temp;Humidity;BMP_temperature;BMP_pressure;BME280_temperature;BME280_humidity;BME280_pressure;Samples;Min_cycle;Max_cycle;Signal;HPM_P1;HPM_P2
2023/10/09 00:01:13;;;;;;;10.07;4.75;;;14.40;99.90;;;;;;5048224;28;20059;-81
2023/10/09 00:03:50;;;;;;;13.30;5.68;;;14.40;99.90;;;;;;5041429;28;20408;-81
2023/10/09 00:06:16;;;;;;;15.60;5.25;;;14.40;99.90;;;;;;5038535;28;20041;-82
2023/10/09 00:08:48;;;;;;;12.25;4.63;;;14.40;99.90;;;;;;5048625;28;20053;-81
2023/10/09 00:11:17;;;;;;;11.43;4.93;;;14.40;99.90;;;;;;5033683;28;20041;-82
2023/10/09 00:13:51;;;;;;;13.27;5.70;;;14.30;99.90;;;;;;5031570;28;20041;-81
2023/10/09 00:16:43;;;;;;;11.85;4.50;;;14.30;99.90;;;;;;5035861;28;20088;-81
2023/10/09 00:19:26;;;;;;;12.55;4.85;;;14.30;99.90;;;;;;5031619;28;20037;-81
2023/10/09 00:21:55;;;;;;;11.60;5.40;;;14.30;99.90;;;;;;5035195;28;20050;-80
2023/10/09 00:24:24;;;;;;;10.40;4.72;;;14.40;99.90;;;;;;5040312;28;20052;-82
2023/10/09 00:29:45;;;;;;;15.27;5.38;;;14.30;99.90;;;;;;5052351;28;20423;-81
2023/10/09 00:32:25;;;;;;;15.50;6.45;;;14.30;99.90;;;;;;5052291;28;20480;-82
2023/10/09 00:34:52;;;;;;;16.55;6.00;;;14.30;99.90;;;;;;5041300;28;20049;-82
2023/10/09 00:37:23;;;;;;;13.40;5.93;;;14.30;99.90;;;;;;5048707;28;20045;-82
2023/10/09 00:39:56;;;;;;;15.30;6.50;;;14.30;99.90;;;;;;5034320;28;20106;-82
2023/10/09 00:42:29;;;;;;;12.38;5.95;;;14.30;99.90;;;;;;5032232;28;20036;-81
2023/10/09 00:45:07;;;;;;;10.85;5.57;;;14.30;99.90;;;;;;5025158;28;20049;-82
2023/10/09 00:47:40;;;;;;;14.02;6.32;;;14.30;99.90;;;;;;5027677;28;20037;-81
2023/10/09 00:50:20;;;;;;;17.42;7.35;;;14.30;99.90;;;;;;5021615;28;20477;-82
2023/10/09 00:53:01;;;;;;;15.15;6.05;;;14.40;99.90;;;;;;5042274;28;20041;-81
2023/10/09 00:55:38;;;;;;;22.00;8.90;;;14.40;99.90;;;;;;5036517;28;20045;-82
2023/10/09 00:58:11;;;;;;;19.02;7.38;;;14.30;99.90;;;;;;5045358;28;20048;-82
2023/10/09 01:03:20;;;;;;;16.75;7.53;;;14.40;99.90;;;;;;5046627;28;20053;-82
2023/10/09 01:11:09;;;;;;;12.73;5.60;;;14.40;99.90;;;;;;5048078;28;20056;-82
2023/10/09 01:16:22;;;;;;;24.02;8.77;;;14.40;99.90;;;;;;5044877;28;20067;-81
2023/10/09 01:18:56;;;;;;;22.05;10.10;;;14.40;99.90;;;;;;5046011;28;20549;-82
2023/10/09 01:21:24;;;;;;;19.77;7.30;;;14.40;99.90;;;;;;5049330;28;20044;-81
2023/10/09 01:24:03;;;;;;;24.55;10.15;;;14.40;99.90;;;;;;5041102;28;20053;-81
2023/10/09 01:26:39;;;;;;;29.50;11.88;;;14.40;99.90;;;;;;5053578;28;20041;-80
2023/10/09 01:29:21;;;;;;;25.85;11.43;;;14.40;99.90;;;;;;5035452;28;20041;-82
2023/10/09 01:31:55;;;;;;;24.02;11.10;;;14.40;99.90;;;;;;5053373;28;20045;-83
2023/10/09 01:34:26;;;;;;;25.67;12.43;;;14.40;99.90;;;;;;5037799;28;20115;-80
2023/10/09 01:36:55;;;;;;;32.38;13.88;;;14.40;99.90;;;;;;5034609;28;20111;-82
2023/10/09 01:39:31;;;;;;;33.45;14.27;;;14.40;99.90;;;;;;5034716;28;20573;-80
2023/10/09 01:42:05;;;;;;;26.92;11.38;;;14.40;99.90;;;;;;5038734;28;20123;-80
2023/10/09 01:44:34;;;;;;;;;;;14.40;99.90;;;;;;5053762;28;20060;-80
2023/10/09 01:47:07;;;;;;;23.67;11.90;;;14.40;99.90;;;;;;5046383;28;19921;-81
2023/10/09 01:49:43;;;;;;;18.27;9.65;;;14.40;99.90;;;;;;5049715;28;20393;-80
2023/10/09 01:52:18;;;;;;;24.60;11.95;;;14.40;99.90;;;;;;5053482;28;20040;-81
2023/10/09 01:55:01;;;;;;;30.77;13.75;;;14.40;99.90;;;;;;5051816;28;20484;-81
2023/10/09 01:57:29;;;;;;;25.33;11.68;;;14.40;99.90;;;;;;5052827;28;20084;-81
2023/10/09 01:59:57;;;;;;;40.03;15.07;;;14.40;99.90;;;;;;5051556;28;20095;-80
2023/10/09 02:02:26;;;;;;;31.98;15.40;;;14.40;99.90;;;;;;5051644;28;20532;-81
2023/10/09 02:04:54;;;;;;;30.10;13.88;;;14.40;99.90;;;;;;5050942;28;20536;-79
2023/10/09 02:07:28;;;;;;;28.67;13.30;;;14.40;99.90;;;;;;5052397;28;20118;-80
2023/10/09 02:09:57;;;;;;;;;;;14.40;99.90;;;;;;5051860;28;20056;-81
2023/10/09 02:12:23;;;;;;;31.70;14.00;;;14.40;99.90;;;;;;5049841;28;20003;-80
2023/10/09 02:14:53;;;;;;;23.70;11.40;;;14.40;99.90;;;;;;5051723;28;20053;-81
2023/10/09 02:17:28;;;;;;;29.33;14.63;;;14.40;99.90;;;;;;5050593;28;20074;-81
2023/10/09 02:19:54;;;;;;;32.58;15.23;;;14.40;99.90;;;;;;5052996;28;20124;-81
2023/10/09 02:22:25;;;;;;;27.65;13.30;;;14.40;99.90;;;;;;5052335;28;20124;-81
2023/10/09 02:24:57;;;;;;;24.25;12.27;;;14.30;99.90;;;;;;5047924;28;20766;-80
2023/10/09 02:27:40;;;;;;;30.55;15.80;;;14.30;99.90;;;;;;5050688;28;20106;-81
2023/10/09 02:30:51;;;;;;;29.48;15.45;;;14.30;99.90;;;;;;5039969;28;20786;-82
2023/10/09 02:33:08;;;;;;;19.98;10.75;;;14.30;99.90;;;;;;5038517;28;20064;-82
2023/10/09 02:35:42;;;;;;;27.20;14.35;;;14.30;99.90;;;;;;5042497;28;20124;-81
2023/10/09 02:38:11;;;;;;;26.52;13.88;;;14.30;99.90;;;;;;5032287;28;20095;-81
2023/10/09 02:40:41;;;;;;;30.85;15.10;;;14.30;99.90;;;;;;5028413;28;20047;-82
2023/10/09 02:43:17;;;;;;;24.33;11.55;;;14.30;99.90;;;;;;5053285;28;20053;-82
2023/10/09 02:45:50;;;;;;;25.85;13.13;;;14.30;99.90;;;;;;5053068;28;20045;-82
2023/10/09 02:48:19;;;;;;;23.02;12.40;;;14.30;99.90;;;;;;5047449;28;20136;-81
2023/10/09 02:50:45;;;;;;;27.58;14.20;;;14.30;99.90;;;;;;5035722;28;20043;-82
2023/10/09 02:53:18;;;;;;;35.70;17.65;;;14.30;99.90;;;;;;5039491;28;20050;-82
2023/10/09 02:56:02;;;;;;;31.45;15.82;;;14.20;99.90;;;;;;5026180;28;20042;-80
2023/10/09 02:58:31;;;;;;;36.67;17.77;;;14.20;99.90;;;;;;5023098;28;20068;-82
2023/10/09 03:00:58;;;;;;;25.20;13.77;;;14.20;99.90;;;;;;5039648;28;20336;-82
2023/10/09 03:03:25;;;;;;;32.70;15.55;;;14.20;99.90;;;;;;5048368;28;20595;-81
2023/10/09 03:05:51;;;;;;;27.98;15.60;;;14.20;99.90;;;;;;5045934;28;20045;-82
2023/10/09 03:08:19;;;;;;;31.73;14.88;;;14.20;99.90;;;;;;5046743;28;20037;-82
2023/10/09 03:10:45;;;;;;;35.60;16.85;;;14.20;99.90;;;;;;5042872;28;20442;-82
2023/10/09 03:13:10;;;;;;;32.38;17.05;;;14.20;99.90;;;;;;5042394;28;20120;-82
2023/10/09 03:15:38;;;;;;;35.13;18.13;;;14.20;99.90;;;;;;5039199;28;20101;-81
2023/10/09 03:18:07;;;;;;;34.13;17.13;;;14.20;99.90;;;;;;5048854;28;20070;-81
2023/10/09 03:20:33;;;;;;;31.35;16.80;;;14.20;99.90;;;;;;5038324;28;20061;-80
2023/10/09 03:23:01;;;;;;;37.13;17.90;;;14.20;99.90;;;;;;5043014;28;20052;-81
2023/10/09 03:25:28;;;;;;;33.47;18.02;;;14.20;99.90;;;;;;5043478;28;20052;-81
2023/10/09 03:27:56;;;;;;;29.83;17.35;;;14.20;99.90;;;;;;5034396;28;20045;-81
2023/10/09 03:30:24;;;;;;;27.70;16.23;;;14.30;99.90;;;;;;5044171;28;20052;-82
2023/10/09 03:32:54;;;;;;;38.50;18.63;;;14.20;99.90;;;;;;5041807;28;20044;-82
2023/10/09 03:35:24;;;;;;;35.97;19.13;;;14.20;99.90;;;;;;5034974;28;20073;-82
2023/10/09 03:38:02;;;;;;;32.22;17.73;;;14.20;99.90;;;;;;5047073;28;20037;-82
2023/10/09 03:40:28;;;;;;;31.70;18.40;;;14.20;99.90;;;;;;5039789;28;20090;-80
2023/10/09 03:42:53;;;;;;;47.80;21.90;;;14.30;99.90;;;;;;5034669;28;20045;-82
2023/10/09 03:45:26;;;;;;;40.20;21.00;;;14.30;99.90;;;;;;5049628;28;20071;-81
2023/10/09 03:47:57;;;;;;;45.08;21.20;;;14.30;99.90;;;;;;5040194;28;20095;-81
2023/10/09 03:50:38;;;;;;;38.92;20.67;;;14.30;99.90;;;;;;5053167;28;20072;-80
2023/10/09 03:53:08;;;;;;;39.53;21.83;;;14.30;99.90;;;;;;5051143;28;20373;-80
2023/10/09 03:55:40;;;;;;;41.67;20.75;;;14.30;99.90;;;;;;5050242;28;20049;-81
2023/10/09 03:58:06;;;;;;;37.55;20.08;;;14.30;99.90;;;;;;5050677;28;20381;-80
2023/10/09 04:00:40;;;;;;;44.08;22.05;;;14.30;99.90;;;;;;5050530;28;20052;-80
2023/10/09 04:03:06;;;;;;;35.10;18.42;;;14.30;99.90;;;;;;5049485;28;20060;-81
2023/10/09 04:05:32;;;;;;;47.85;23.52;;;14.30;99.90;;;;;;5048256;28;20045;-80
2023/10/09 04:08:02;;;;;;;38.72;20.75;;;14.30;99.90;;;;;;5051170;28;20045;-79
2023/10/09 04:10:43;;;;;;;46.95;23.55;;;14.40;99.90;;;;;;5037311;28;20053;-81
2023/10/09 04:13:12;;;;;;;46.38;23.48;;;14.40;99.90;;;;;;5034302;28;20132;-81
2023/10/09 04:15:38;;;;;;;43.38;24.33;;;14.40;99.90;;;;;;5040492;28;20055;-81
2023/10/09 04:18:08;;;;;;;42.35;23.60;;;14.40;99.90;;;;;;5046878;28;20045;-81
2023/10/09 04:23:04;;;;;;;40.97;21.00;;;14.40;99.90;;;;;;5047183;28;20140;-81
2023/10/09 04:25:41;;;;;;;39.90;20.60;;;14.40;99.90;;;;;;5048644;28;20048;-81
2023/10/09 04:28:21;;;;;;;47.58;23.80;;;14.50;99.90;;;;;;5047284;28;20063;-80
2023/10/09 04:30:53;;;;;;;44.10;23.05;;;14.50;99.90;;;;;;5038129;28;20424;-81
2023/10/09 04:41:51;;;;;;;56.90;24.90;;;14.50;99.90;;;;;;5030565;28;20056;-80
2023/10/09 04:44:22;;;;;;;47.70;25.48;;;14.50;99.90;;;;;;5041251;28;20049;-79
2023/10/09 04:53:13;;;;;;;63.15;29.20;;;14.60;99.90;;;;;;5043362;28;20091;-81
2023/10/09 04:57:37;;;;;;;46.88;25.65;;;14.50;99.90;;;;;;5050233;28;20049;-81
2023/10/09 05:00:06;;;;;;;56.28;27.83;;;14.60;99.90;;;;;;5049811;28;20057;-80
2023/10/09 05:02:36;;;;;;;59.42;28.75;;;14.50;99.90;;;;;;5033613;28;20513;-79
2023/10/09 05:05:47;;;;;;;55.75;28.48;;;14.60;99.90;;;;;;5047230;28;20541;-80
2023/10/09 05:08:48;;;;;;;58.67;28.38;;;14.60;99.90;;;;;;5034916;28;20083;-81
2023/10/09 05:13:43;;;;;;;57.80;30.60;;;14.60;99.90;;;;;;5050376;28;20143;-81
2023/10/09 05:16:16;;;;;;;57.72;29.20;;;14.60;99.90;;;;;;5038083;28;20080;-79
2023/10/09 05:18:44;;;;;;;47.65;23.80;;;14.60;99.90;;;;;;5049078;28;20041;-80
2023/10/09 05:23:48;;;;;;;49.42;26.10;;;14.60;99.90;;;;;;5047897;28;20040;-80
2023/10/09 05:26:37;;;;;;;53.88;28.88;;;14.60;99.90;;;;;;5049808;28;20060;-80
2023/10/09 05:29:19;;;;;;;55.13;28.55;;;14.60;99.90;;;;;;5045177;28;20096;-80
2023/10/09 05:32:15;;;;;;;54.05;26.60;;;14.70;99.90;;;;;;5049169;28;20081;-79
2023/10/09 05:37:42;;;;;;;55.10;27.30;;;14.70;99.90;;;;;;5047803;28;20111;-80
2023/10/09 05:42:44;;;;;;;58.70;28.33;;;14.70;99.90;;;;;;5049442;28;20057;-76
2023/10/09 05:51:10;;;;;;;49.50;24.95;;;14.80;99.90;;;;;;5047563;28;20053;-80
2023/10/09 06:04:25;;;;;;;50.20;25.58;;;14.90;99.90;;;;;;5046107;28;20508;-81
2023/10/09 06:06:56;;;;;;;43.88;22.67;;;14.90;99.90;;;;;;5044649;28;20052;-82
2023/10/09 06:09:28;;;;;;;41.65;21.75;;;14.90;99.90;;;;;;5053367;28;20095;-81
2023/10/09 06:24:41;;;;;;;37.10;20.27;;;15.00;99.90;;;;;;5034296;28;20044;-82
2023/10/09 06:29:51;;;;;;;37.60;16.67;;;15.00;99.90;;;;;;5054553;28;20063;-80
2023/10/09 06:34:52;;;;;;;38.20;17.00;;;15.00;99.90;;;;;;5060327;28;20049;-82
2023/10/09 06:39:50;;;;;;;31.70;15.35;;;15.10;99.90;;;;;;5049311;28;20055;-82
2023/10/09 06:42:43;;;;;;;27.05;12.75;;;15.10;99.90;;;;;;5048983;28;20504;-80
2023/10/09 06:47:42;;;;;;;32.35;14.95;;;15.10;99.90;;;;;;5038133;28;20064;-80
2023/10/09 06:50:24;;;;;;;33.60;14.90;;;15.20;99.90;;;;;;5045144;28;20045;-80
2023/10/09 06:55:51;;;;;;;21.52;11.27;;;15.20;99.90;;;;;;5038299;28;20202;-82
2023/10/09 06:58:26;;;;;;;22.92;11.23;;;15.20;99.90;;;;;;5048898;28;20397;-80
2023/10/09 07:03:54;;;;;;;24.73;10.60;;;15.20;99.90;;;;;;5008399;28;20145;-82
2023/10/09 07:06:24;;;;;;;21.20;11.40;;;15.20;99.90;;;;;;5049094;28;20045;-82
2023/10/09 07:25:14;;;;;;;32.08;11.68;;;15.30;99.90;;;;;;5048873;28;20400;-83
2023/10/09 07:27:53;;;;;;;25.63;10.00;;;15.30;99.90;;;;;;5046951;28;20403;-85
2023/10/09 07:38:23;;;;;;;27.75;8.35;;;15.40;99.90;;;;;;5046066;28;20061;-81
2023/10/09 07:43:45;;;;;;;25.20;9.93;;;15.40;99.90;;;;;;5039541;28;20132;-82
2023/10/09 07:46:51;;;;;;;14.38;6.05;;;15.40;99.90;;;;;;5042564;28;20440;-83
2023/10/09 07:49:25;;;;;;;24.65;9.52;;;15.40;99.90;;;;;;5043416;28;20085;-82
2023/10/09 07:51:52;;;;;;;18.55;6.75;;;15.40;99.90;;;;;;5047229;28;20081;-82
2023/10/09 07:54:31;;;;;;;21.30;8.13;;;15.40;99.90;;;;;;5044550;28;20050;-83
2023/10/09 07:57:08;;;;;;;23.00;10.05;;;15.50;99.90;;;;;;5046461;28;20488;-83
2023/10/09 07:59:49;;;;;;;39.92;13.77;;;15.50;99.90;;;;;;5044678;28;20051;-82
2023/10/09 08:02:16;;;;;;;26.25;10.80;;;15.50;99.90;;;;;;5048589;28;20106;-83
2023/10/09 08:04:53;;;;;;;20.70;8.40;;;15.50;99.90;;;;;;5043388;28;20044;-83
2023/10/09 08:07:34;;;;;;;24.70;8.63;;;15.50;99.90;;;;;;5027834;28;20377;-83
2023/10/09 08:12:57;;;;;;;26.85;10.23;;;15.50;99.90;;;;;;5041879;28;20045;-83
2023/10/09 08:15:34;;;;;;;17.88;10.30;;;15.50;99.90;;;;;;5046275;28;20039;-81
2023/10/09 08:18:03;;;;;;;30.83;10.43;;;15.50;99.90;;;;;;5045401;28;20042;-82
2023/10/09 08:23:48;;;;;;;22.08;8.43;;;15.50;99.90;;;;;;5025097;28;20053;-84
2023/10/09 08:26:14;;;;;;;21.45;8.43;;;15.50;99.90;;;;;;5041373;28;20496;-81
2023/10/09 08:28:44;;;;;;;24.40;9.00;;;15.60;99.90;;;;;;5046247;28;20059;-81
2023/10/09 08:33:58;;;;;;;20.25;8.77;;;15.60;99.90;;;;;;5042657;28;20057;-81
2023/10/09 08:36:28;;;;;;;19.42;9.45;;;15.60;99.90;;;;;;5037608;28;20044;-81
2023/10/09 08:38:58;;;;;;;26.30;10.57;;;15.60;99.90;;;;;;5039103;28;20477;-82
2023/10/09 08:41:25;;;;;;;25.75;10.07;;;15.70;99.90;;;;;;5051877;28;20045;-82
2023/10/09 08:43:54;;;;;;;21.00;10.00;;;15.60;99.90;;;;;;5054122;28;20053;-82
2023/10/09 08:46:28;;;;;;;32.60;8.60;;;15.70;99.90;;;;;;5049159;28;20049;-84
2023/10/09 08:48:58;;;;;;;25.40;10.00;;;15.60;99.90;;;;;;5037319;28;20115;-81
2023/10/09 08:51:27;;;;;;;26.92;9.48;;;15.60;99.90;;;;;;5035698;28;20041;-81
2023/10/09 08:53:53;;;;;;;24.60;10.20;;;15.60;99.90;;;;;;5053161;28;20041;-80
2023/10/09 08:56:24;;;;;;;27.58;10.25;;;15.60;99.90;;;;;;5052155;28;20407;-78
2023/10/09 08:58:56;;;;;;;19.90;8.38;;;15.70;99.90;;;;;;5053242;28;20040;-80
2023/10/09 09:01:22;;;;;;;22.35;8.88;;;15.60;99.90;;;;;;5042178;28;20049;-79
2023/10/09 09:03:50;;;;;;;27.38;11.48;;;15.60;99.90;;;;;;5037021;28;20091;-80
2023/10/09 09:06:19;;;;;;;28.63;11.05;;;15.60;99.90;;;;;;5043836;28;20523;-81
2023/10/09 09:08:46;;;;;;;27.38;10.85;;;15.70;99.90;;;;;;5045496;28;20044;-81
2023/10/09 09:11:12;;;;;;;22.00;9.00;;;15.70;99.90;;;;;;5052182;28;20049;-80
2023/10/09 09:13:41;;;;;;;26.15;9.48;;;15.80;99.90;;;;;;5049356;28;20083;-80
2023/10/09 09:16:30;;;;;;;21.75;10.25;;;15.80;99.90;;;;;;5050801;28;20373;-80
2023/10/09 09:21:45;;;;;;;23.02;10.13;;;15.80;99.90;;;;;;5052740;28;20148;-79
2023/10/09 09:27:18;;;;;;;25.08;10.15;;;15.90;99.90;;;;;;5050249;28;20040;-81
2023/10/09 09:29:57;;;;;;;25.95;10.07;;;15.90;99.90;;;;;;5040948;28;20409;-81
2023/10/09 09:32:35;;;;;;;20.52;10.20;;;15.90;99.90;;;;;;5048443;28;20048;-80
2023/10/09 09:35:04;;;;;;;20.90;9.40;;;15.90;99.90;;;;;;5052751;28;20124;-80
2023/10/09 09:37:38;;;;;;;17.60;9.02;;;16.00;99.90;;;;;;5052560;28;20420;-80
2023/10/09 09:40:15;;;;;;;18.80;10.48;;;15.90;99.90;;;;;;5053737;28;20048;-79
2023/10/09 09:42:48;;;;;;;21.80;10.25;;;16.00;99.90;;;;;;5051351;28;20056;-80
2023/10/09 09:45:16;;;;;;;23.05;8.98;;;16.00;99.90;;;;;;5054131;28;20385;-80
2023/10/09 09:47:51;;;;;;;25.67;10.43;;;16.00;99.90;;;;;;5049908;28;20047;-82
2023/10/09 09:50:29;;;;;;;20.05;9.30;;;16.00;99.90;;;;;;5051377;28;20053;-79
2023/10/09 09:52:56;;;;;;;17.95;8.15;;;16.00;99.90;;;;;;5044345;28;20050;-82
2023/10/09 09:55:30;;;;;;;22.05;10.60;;;16.10;99.90;;;;;;5037405;28;20041;-80
2023/10/09 09:57:57;;;;;;;18.55;8.35;;;16.10;99.90;;;;;;5053173;28;20134;-81
2023/10/09 10:03:14;;;;;;;20.38;8.57;;;16.20;99.90;;;;;;5052670;28;20483;-81
2023/10/09 10:05:42;;;;;;;16.88;8.35;;;16.20;99.90;;;;;;5049163;28;20056;-80
2023/10/09 10:08:12;;;;;;;15.90;8.38;;;16.20;99.90;;;;;;5060304;28;20092;-81
2023/10/09 10:10:49;;;;;;;17.25;7.78;;;16.30;99.90;;;;;;5051279;28;20044;-82
2023/10/09 10:13:23;;;;;;;15.68;7.25;;;16.20;99.90;;;;;;5047211;28;20049;-80
2023/10/09 10:16:00;;;;;;;19.92;7.93;;;16.30;99.90;;;;;;5039349;28;20150;-82
2023/10/09 10:18:35;;;;;;;14.50;6.88;;;16.30;99.90;;;;;;5052688;28;20087;-81
2023/10/09 10:21:33;;;;;;;14.07;6.10;;;16.30;99.90;;;;;;5050665;28;20057;-83
2023/10/09 10:24:11;;;;;;;14.70;7.97;;;16.30;99.90;;;;;;5043035;28;20053;-83
2023/10/09 10:26:37;;;;;;;21.60;8.40;;;16.30;99.90;;;;;;5046535;28;20049;-82
2023/10/09 10:29:23;;;;;;;17.40;8.30;;;16.40;99.90;;;;;;5052901;28;20049;-81
2023/10/09 10:31:54;;;;;;;14.38;8.30;;;16.40;99.90;;;;;;5047444;28;20124;-82
2023/10/09 10:34:23;;;;;;;23.60;8.63;;;16.40;99.90;;;;;;5044516;28;20906;-80
2023/10/09 10:36:54;;;;;;;18.35;8.13;;;16.30;99.90;;;;;;5026577;28;20044;-82
2023/10/09 10:39:42;;;;;;;;;;;16.30;99.90;;;;;;5046536;28;20037;-83
2023/10/09 10:42:51;;;;;;;23.27;7.75;;;16.30;99.90;;;;;;5042869;28;19925;-83
2023/10/09 10:45:34;;;;;;;16.23;7.68;;;16.30;99.90;;;;;;5040585;28;20080;-84
2023/10/09 10:47:58;;;;;;;;;;;16.30;99.90;;;;;;5048185;28;20132;-82
2023/10/09 10:53:34;;;;;;;22.95;7.22;;;16.30;99.90;;;;;;5045532;28;20554;-80
2023/10/09 11:01:25;;;;;;;15.02;7.10;;;16.40;99.90;;;;;;5040555;28;20084;-80
2023/10/09 11:06:36;;;;;;;16.02;6.53;;;16.40;99.90;;;;;;5048898;28;20049;-81
2023/10/09 11:09:21;;;;;;;22.08;6.68;;;16.40;99.90;;;;;;5044596;28;20167;-83
2023/10/09 11:11:51;;;;;;;20.75;7.45;;;16.30;99.90;;;;;;5022547;28;20041;-85
2023/10/09 11:14:23;;;;;;;20.92;7.10;;;16.40;99.90;;;;;;5049297;28;20054;-82
2023/10/09 11:16:50;;;;;;;18.38;6.95;;;16.40;99.90;;;;;;5048839;28;20045;-84
2023/10/09 11:24:34;;;;;;;21.80;7.40;;;16.40;99.90;;;;;;5050041;28;20102;-83
2023/10/09 11:27:07;;;;;;;23.92;8.20;;;16.40;99.90;;;;;;5045086;28;20047;-83
2023/10/09 11:32:22;;;;;;;22.55;7.60;;;16.40;99.90;;;;;;5046617;28;20504;-84
2023/10/09 11:34:52;;;;;;;20.25;6.95;;;16.40;99.90;;;;;;5050421;28;20598;-83
2023/10/09 11:37:38;;;;;;;19.65;7.60;;;16.40;99.90;;;;;;5021634;28;20127;-81
2023/10/09 11:40:21;;;;;;;16.35;6.88;;;16.30;99.90;;;;;;5047231;28;20599;-81
2023/10/09 11:42:49;;;;;;;17.70;7.03;;;16.40;99.90;;;;;;5049217;28;20041;-81
2023/10/09 11:45:28;;;;;;;25.60;7.25;;;16.40;99.90;;;;;;5049367;28;20053;-85
2023/10/09 11:48:00;;;;;;;21.50;6.03;;;16.40;99.90;;;;;;5032517;28;20052;-82
2023/10/09 11:50:43;;;;;;;20.73;5.97;;;16.40;99.90;;;;;;5047329;28;20040;-82
2023/10/09 11:53:19;;;;;;;17.10;5.78;;;16.30;99.90;;;;;;5046600;28;20102;-83
2023/10/09 11:55:49;;;;;;;19.42;6.03;;;16.30;99.90;;;;;;5045729;28;20063;-82
2023/10/09 11:58:23;;;;;;;19.85;5.97;;;16.40;99.90;;;;;;5053448;28;20060;-84
2023/10/09 12:01:03;;;;;;;17.40;5.63;;;16.40;99.90;;;;;;5039233;28;20084;-84
2023/10/09 12:03:29;;;;;;;22.15;5.60;;;16.40;99.90;;;;;;5051712;28;20049;-83
2023/10/09 12:06:14;;;;;;;13.63;5.18;;;16.40;99.90;;;;;;5047399;28;20048;-84
2023/10/09 12:08:42;;;;;;;18.38;4.47;;;16.50;99.90;;;;;;5032735;28;20037;-82
2023/10/09 12:11:09;;;;;;;15.30;4.85;;;16.60;99.90;;;;;;5047275;28;20099;-84
2023/10/09 12:13:37;;;;;;;13.13;4.13;;;16.60;99.90;;;;;;5046387;28;20048;-86
2023/10/09 12:16:08;;;;;;;14.20;4.57;;;16.60;99.90;;;;;;5051849;28;20473;-82
2023/10/09 12:18:34;;;;;;;12.95;3.97;;;16.60;99.90;;;;;;5029702;28;20049;-82
2023/10/09 12:21:04;;;;;;;8.52;3.72;;;16.60;99.90;;;;;;5046547;28;20053;-83
2023/10/09 12:23:35;;;;;;;18.38;4.10;;;16.60;99.90;;;;;;5045776;28;20128;-83
2023/10/09 12:26:04;;;;;;;14.60;3.92;;;16.70;99.90;;;;;;5053811;28;20504;-83
2023/10/09 12:28:32;;;;;;;13.80;4.35;;;16.70;99.90;;;;;;5052234;28;20472;-82
2023/10/09 12:31:01;;;;;;;11.52;4.35;;;16.70;99.90;;;;;;5050517;28;20081;-83
2023/10/09 12:33:28;;;;;;;17.90;4.20;;;16.70;99.90;;;;;;5053461;28;20128;-81
2023/10/09 12:36:01;;;;;;;10.25;3.35;;;16.70;99.90;;;;;;5047329;28;20488;-83
2023/10/09 12:38:34;;;;;;;17.17;3.83;;;16.70;99.90;;;;;;5039756;28;20040;-82
2023/10/09 12:41:26;;;;;;;10.48;3.60;;;16.70;99.90;;;;;;5036040;28;20049;-82
2023/10/09 12:43:55;;;;;;;11.70;3.72;;;16.70;99.90;;;;;;5045873;28;20076;-83
2023/10/09 12:46:25;;;;;;;14.32;3.47;;;16.80;99.90;;;;;;5052702;28;20056;-82
2023/10/09 12:48:54;;;;;;;10.80;3.13;;;16.80;99.90;;;;;;5050990;28;20120;-83
2023/10/09 12:51:25;;;;;;;17.13;5.10;;;16.70;99.90;;;;;;5043982;28;20113;-82
2023/10/09 12:53:57;;;;;;;14.02;3.35;;;16.70;99.90;;;;;;5035340;28;20049;-83
2023/10/09 12:56:33;;;;;;;9.50;3.35;;;16.70;99.90;;;;;;5050012;28;20053;-82
2023/10/09 12:59:04;;;;;;;13.45;3.55;;;16.80;99.90;;;;;;5049332;28;20109;-81
2023/10/09 13:01:32;;;;;;;14.40;3.35;;;16.90;99.90;;;;;;5054619;28;20049;-84
2023/10/09 13:04:01;;;;;;;14.25;3.20;;;16.90;99.90;;;;;;5050707;28;20098;-84
2023/10/09 13:06:27;;;;;;;10.10;2.95;;;17.00;99.90;;;;;;5034571;28;20060;-84
2023/10/09 13:08:59;;;;;;;11.95;3.05;;;17.00;99.90;;;;;;5053722;28;20060;-82
2023/10/09 13:11:25;;;;;;;9.48;2.45;;;17.00;99.90;;;;;;5053478;28;20119;-87
2023/10/09 13:13:51;;;;;;;9.90;2.80;;;17.10;99.90;;;;;;5047469;28;20045;-83
2023/10/09 13:16:25;;;;;;;10.40;2.67;;;17.20;99.90;;;;;;5051798;28;20049;-85
2023/10/09 13:18:54;;;;;;;7.93;2.38;;;17.20;99.90;;;;;;5020671;28;20114;-83
2023/10/09 13:21:26;;;;;;;7.28;2.40;;;17.20;99.90;;;;;;5048827;28;20057;-83
2023/10/09 13:23:54;;;;;;;6.78;2.33;;;17.20;99.90;;;;;;5043119;28;20053;-84
2023/10/09 13:26:25;;;;;;;8.85;2.38;;;17.20;99.90;;;;;;5047329;28;20040;-85
2023/10/09 13:28:55;;;;;;;9.70;2.30;;;17.20;99.90;;;;;;5041611;28;20480;-85
2023/10/09 13:31:26;;;;;;;9.30;2.58;;;17.10;99.90;;;;;;5048225;28;20124;-83
2023/10/09 13:33:55;;;;;;;11.40;2.33;;;17.10;99.90;;;;;;5039537;28;20396;-83
2023/10/09 13:36:31;;;;;;;9.82;2.45;;;17.10;99.90;;;;;;5048454;28;20158;-79
2023/10/09 13:41:57;;;;;;;6.97;1.88;;;17.10;99.90;;;;;;5040609;28;20052;-83
2023/10/09 13:44:28;;;;;;;6.47;1.42;;;17.00;99.90;;;;;;5045913;28;20078;-80
2023/10/09 13:47:18;;;;;;;5.88;1.90;;;17.00;99.90;;;;;;5022956;28;20041;-84
2023/10/09 13:49:44;;;;;;;7.53;2.03;;;17.10;99.90;;;;;;5041695;28;20504;-84
2023/10/09 13:52:10;;;;;;;10.10;2.08;;;17.10;99.90;;;;;;5036845;28;20049;-81
2023/10/09 13:57:06;;;;;;;6.45;2.08;;;17.00;99.90;;;;;;5040690;28;20053;-87
2023/10/09 13:59:34;;;;;;;11.32;2.08;;;17.00;99.90;;;;;;5043051;28;20068;-82
2023/10/09 14:02:02;;;;;;;9.73;2.50;;;17.00;99.90;;;;;;5047119;28;20123;-84
2023/10/09 14:04:28;;;;;;;6.78;2.63;;;17.00;99.90;;;;;;5035884;28;20088;-83
2023/10/09 14:06:57;;;;;;;6.28;2.20;;;17.00;99.90;;;;;;5046688;28;20500;-80
2023/10/09 14:09:37;;;;;;;8.13;2.25;;;16.90;99.90;;;;;;5047161;28;20077;-81
2023/10/09 14:12:10;;;;;;;10.75;2.60;;;17.00;99.90;;;;;;5047406;28;20041;-83
2023/10/09 14:14:48;;;;;;;6.20;2.30;;;16.90;99.90;;;;;;5037933;28;20146;-82
2023/10/09 14:17:28;;;;;;;9.32;2.58;;;16.90;99.90;;;;;;5033222;28;20124;-82
2023/10/09 14:19:56;;;;;;;7.65;2.35;;;16.90;99.90;;;;;;5037149;28;20046;-78
2023/10/09 14:22:26;;;;;;;7.03;2.65;;;16.90;99.90;;;;;;5043278;28;20061;-79
2023/10/09 14:24:56;;;;;;;9.77;2.60;;;16.90;99.90;;;;;;5038331;28;20095;-83
2023/10/09 14:27:29;;;;;;;7.88;3.00;;;16.90;99.90;;;;;;5054398;28;20469;-81
2023/10/09 14:30:01;;;;;;;7.43;2.30;;;16.90;99.90;;;;;;5049208;28;20049;-80
2023/10/09 14:32:33;;;;;;;5.55;2.40;;;16.90;99.90;;;;;;5043092;28;20083;-81
2023/10/09 14:35:02;;;;;;;8.55;2.47;;;16.90;99.90;;;;;;5050760;28;20053;-82
2023/10/09 14:37:28;;;;;;;7.25;2.38;;;16.90;99.90;;;;;;5050925;28;20095;-79
2023/10/09 14:39:55;;;;;;;10.85;3.20;;;16.90;99.90;;;;;;5050763;28;20048;-82
2023/10/09 14:42:23;;;;;;;5.88;2.40;;;16.90;99.90;;;;;;5048421;28;20044;-82
2023/10/09 14:44:50;;;;;;;7.43;2.60;;;16.80;99.90;;;;;;5042078;28;20049;-84
2023/10/09 14:47:16;;;;;;;9.13;2.70;;;16.90;99.90;;;;;;5044278;28;20071;-81
2023/10/09 14:49:43;;;;;;;10.80;2.42;;;16.80;99.90;;;;;;5043157;28;20098;-81
2023/10/09 14:52:10;;;;;;;7.97;2.40;;;16.90;99.90;;;;;;5039162;28;20057;-82
2023/10/09 14:54:36;;;;;;;8.13;2.42;;;16.80;99.90;;;;;;5037812;28;20040;-82
2023/10/09 14:57:05;;;;;;;7.03;2.60;;;16.90;99.90;;;;;;5050072;28;20139;-80
2023/10/09 14:59:34;;;;;;;5.68;2.30;;;16.90;99.90;;;;;;5035285;28;20389;-83
2023/10/09 15:02:01;;;;;;;7.90;2.55;;;16.80;99.90;;;;;;5045310;28;20048;-82
2023/10/09 15:04:27;;;;;;;7.07;2.17;;;16.90;99.90;;;;;;5047378;28;20049;-84
2023/10/09 15:06:53;;;;;;;5.50;2.33;;;16.90;99.90;;;;;;5048045;28;20124;-83
2023/10/09 15:09:29;;;;;;;8.15;2.28;;;16.80;99.90;;;;;;5041830;28;20054;-83
2023/10/09 15:11:55;;;;;;;11.00;2.83;;;16.80;99.90;;;;;;5036321;28;20060;-80
2023/10/09 15:14:21;;;;;;;8.02;2.00;;;16.80;99.90;;;;;;5043583;28;20033;-87
2023/10/09 15:16:50;;;;;;;5.50;2.20;;;16.70;99.90;;;;;;5048058;28;20043;-86
2023/10/09 15:19:16;;;;;;;7.22;2.40;;;16.80;99.90;;;;;;5040175;28;20041;-83
2023/10/09 15:21:45;;;;;;;11.35;2.75;;;16.80;99.90;;;;;;5035434;28;20094;-82
2023/10/09 15:24:16;;;;;;;6.70;2.50;;;16.70;99.90;;;;;;5042394;28;20069;-83
2023/10/09 15:26:42;;;;;;;6.38;1.98;;;16.70;99.90;;;;;;5035188;28;20092;-81
2023/10/09 15:29:09;;;;;;;11.27;2.50;;;16.70;99.90;;;;;;5042258;28;20091;-83
2023/10/09 15:31:35;;;;;;;6.20;2.28;;;16.70;99.90;;;;;;5041516;28;20127;-81
2023/10/09 15:34:02;;;;;;;10.32;2.30;;;16.70;99.90;;;;;;5048798;28;20052;-85
2023/10/09 15:36:32;;;;;;;10.95;3.00;;;16.70;99.90;;;;;;5042467;28;20140;-84
2023/10/09 15:38:59;;;;;;;7.82;2.83;;;16.70;99.90;;;;;;5035572;28;20045;-83